sensor_id;sensor_type;location;lat;lon;timestamp;temperature;humidity
19974;DHT22;10148;47.694;9.442;2022-07-03T00:01:19;18.80;99.90
19974;DHT22;10148;47.694;9.442;2022-07-03T00:03:45;18.70;99.90
19974;DHT22;10148;47.694;9.442;2022-07-03T00:06:11;18.70;99.90
19974;DHT22;10148;47.694;9.442;2022-07-03T00:08:37;18.60;99.90
19974;DHT22;10148;47.694;9.442;2022-07-03T00:11:03;18.60;99.90
19974;DHT22;10148;47.694;9.442;2022-07-03T00:13:29;18.60;99.90
19974;DHT22;10148;47.694;9.442;2022-07-03T00:15:55;18.60;99.90
19974;DHT22;10148;47.694;9.442;2022-07-03T00:18:21;18.70;99.90
19974;DHT22;10148;47.694;9.442;2022-07-03T00:20:48;18.70;99.90
19974;DHT22;10148;47.694;9.442;2022-07-03T00:23:16;18.80;99.90
19974;DHT22;10148;47.694;9.442;2022-07-03T00:25:43;18.90;99.90
19974;DHT22;10148;47.694;9.442;2022-07-03T00:28:10;18.90;99.90
19974;DHT22;10148;47.694;9.442;2022-07-03T00:30:36;18.90;99.90
19974;DHT22;10148;47.694;9.442;2022-07-03T00:33:02;18.90;99.90
19974;DHT22;10148;47.694;9.442;2022-07-03T00:35:33;19.00;99.90
19974;DHT22;10148;47.694;9.442;2022-07-03T00:38:00;19.10;99.90
19974;DHT22;10148;47.694;9.442;2022-07-03T00:40:26;19.10;99.90
19974;DHT22;10148;47.694;9.442;2022-07-03T00:42:51;19.10;99.90
19974;DHT22;10148;47.694;9.442;2022-07-03T00:45:20;19.10;99.90
19974;DHT22;10148;47.694;9.442;2022-07-03T00:47:46;19.10;99.90
19974;DHT22;10148;47.694;9.442;2022-07-03T00:50:11;19.10;99.90
19974;DHT22;10148;47.694;9.442;2022-07-03T00:52:38;19.10;99.90
19974;DHT22;10148;47.694;9.442;2022-07-03T00:55:08;19.10;99.90
19974;DHT22;10148;47.694;9.442;2022-07-03T00:57:44;19.10;99.90
19974;DHT22;10148;47.694;9.442;2022-07-03T01:00:11;19.00;99.90
19974;DHT22;10148;47.694;9.442;2022-07-03T01:02:44;19.00;99.90
19974;DHT22;10148;47.694;9.442;2022-07-03T01:10:27;18.50;99.90
19974;DHT22;10148;47.694;9.442;2022-07-03T01:13:07;18.40;99.90
19974;DHT22;10148;47.694;9.442;2022-07-03T01:15:52;18.40;99.90
19974;DHT22;10148;47.694;9.442;2022-07-03T01:18:35;18.40;99.90
19974;DHT22;10148;47.694;9.442;2022-07-03T01:21:23;18.50;99.90
19974;DHT22;10148;47.694;9.442;2022-07-03T01:26:47;18.60;99.90
19974;DHT22;10148;47.694;9.442;2022-07-03T01:29:25;18.70;99.90
19974;DHT22;10148;47.694;9.442;2022-07-03T01:31:54;18.70;99.90
19974;DHT22;10148;47.694;9.442;2022-07-03T01:34:20;18.60;99.90
19974;DHT22;10148;47.694;9.442;2022-07-03T01:36:47;18.60;99.90
19974;DHT22;10148;47.694;9.442;2022-07-03T01:39:16;18.50;99.90
19974;DHT22;10148;47.694;9.442;2022-07-03T01:41:44;18.50;99.90
19974;DHT22;10148;47.694;9.442;2022-07-03T01:44:13;18.40;99.90
19974;DHT22;10148;47.694;9.442;2022-07-03T01:46:40;18.40;99.90
19974;DHT22;10148;47.694;9.442;2022-07-03T01:49:09;18.40;99.90
19974;DHT22;10148;47.694;9.442;2022-07-03T01:51:38;18.30;99.90
19974;DHT22;10148;47.694;9.442;2022-07-03T01:54:05;18.30;99.90
19974;DHT22;10148;47.694;9.442;2022-07-03T01:56:32;18.30;99.90
19974;DHT22;10148;47.694;9.442;2022-07-03T01:59:02;18.30;99.90
19974;DHT22;10148;47.694;9.442;2022-07-03T02:01:41;18.30;99.90
19974;DHT22;10148;47.694;9.442;2022-07-03T02:10:05;18.30;99.90
19974;DHT22;10148;47.694;9.442;2022-07-03T02:12:40;18.20;99.90
19974;DHT22;10148;47.694;9.442;2022-07-03T02:15:09;18.20;99.90
19974;DHT22;10148;47.694;9.442;2022-07-03T02:17:43;18.20;99.90
19974;DHT22;10148;47.694;9.442;2022-07-03T02:20:10;18.10;99.90
19974;DHT22;10148;47.694;9.442;2022-07-03T02:22:38;17.90;99.90
19974;DHT22;10148;47.694;9.442;2022-07-03T02:27:47;17.70;99.90
19974;DHT22;10148;47.694;9.442;2022-07-03T02:30:16;17.60;99.90
19974;DHT22;10148;47.694;9.442;2022-07-03T02:32:49;17.40;99.90
19974;DHT22;10148;47.694;9.442;2022-07-03T02:35:22;17.30;99.90
19974;DHT22;10148;47.694;9.442;2022-07-03T02:38:18;17.20;99.90
19974;DHT22;10148;47.694;9.442;2022-07-03T02:43:38;17.20;99.90
19974;DHT22;10148;47.694;9.442;2022-07-03T02:46:20;17.30;99.90
19974;DHT22;10148;47.694;9.442;2022-07-03T02:49:18;17.30;99.90
19974;DHT22;10148;47.694;9.442;2022-07-03T02:51:55;17.40;99.90
19974;DHT22;10148;47.694;9.442;2022-07-03T02:54:24;17.30;99.90
19974;DHT22;10148;47.694;9.442;2022-07-03T02:59:39;17.50;99.90
19974;DHT22;10148;47.694;9.442;2022-07-03T03:02:17;17.60;99.90
19974;DHT22;10148;47.694;9.442;2022-07-03T03:04:49;17.60;99.90
19974;DHT22;10148;47.694;9.442;2022-07-03T03:07:18;17.70;99.90
19974;DHT22;10148;47.694;9.442;2022-07-03T03:09:47;17.70;99.90
19974;DHT22;10148;47.694;9.442;2022-07-03T03:12:13;17.50;99.90
19974;DHT22;10148;47.694;9.442;2022-07-03T03:14:45;17.40;99.90
19974;DHT22;10148;47.694;9.442;2022-07-03T03:17:23;17.30;99.90
19974;DHT22;10148;47.694;9.442;2022-07-03T03:19:55;17.20;99.90
19974;DHT22;10148;47.694;9.442;2022-07-03T03:25:06;17.20;99.90
19974;DHT22;10148;47.694;9.442;2022-07-03T03:27:32;17.20;99.90
19974;DHT22;10148;47.694;9.442;2022-07-03T03:29:58;17.10;99.90
19974;DHT22;10148;47.694;9.442;2022-07-03T03:32:24;17.10;99.90
19974;DHT22;10148;47.694;9.442;2022-07-03T03:34:51;17.00;99.90
19974;DHT22;10148;47.694;9.442;2022-07-03T03:37:16;16.80;99.90
19974;DHT22;10148;47.694;9.442;2022-07-03T03:39:42;16.80;99.90
19974;DHT22;10148;47.694;9.442;2022-07-03T03:42:08;16.70;99.90
19974;DHT22;10148;47.694;9.442;2022-07-03T03:44:34;16.70;99.90
19974;DHT22;10148;47.694;9.442;2022-07-03T03:47:00;16.60;99.90
19974;DHT22;10148;47.694;9.442;2022-07-03T03:49:26;16.60;99.90
19974;DHT22;10148;47.694;9.442;2022-07-03T03:51:52;16.60;99.90
19974;DHT22;10148;47.694;9.442;2022-07-03T03:54:18;16.70;99.90
19974;DHT22;10148;47.694;9.442;2022-07-03T03:56:44;16.70;99.90
19974;DHT22;10148;47.694;9.442;2022-07-03T03:59:09;16.70;99.90
19974;DHT22;10148;47.694;9.442;2022-07-03T04:01:35;16.70;99.90
19974;DHT22;10148;47.694;9.442;2022-07-03T04:04:00;16.80;99.90
19974;DHT22;10148;47.694;9.442;2022-07-03T04:06:26;16.90;99.90
19974;DHT22;10148;47.694;9.442;2022-07-03T04:08:52;16.90;99.90
19974;DHT22;10148;47.694;9.442;2022-07-03T04:11:18;16.90;99.90
19974;DHT22;10148;47.694;9.442;2022-07-03T04:13:43;17.00;99.90
19974;DHT22;10148;47.694;9.442;2022-07-03T04:16:09;16.90;99.90
19974;DHT22;10148;47.694;9.442;2022-07-03T04:18:34;16.90;99.90
19974;DHT22;10148;47.694;9.442;2022-07-03T04:21:00;16.90;99.90
19974;DHT22;10148;47.694;9.442;2022-07-03T04:23:26;16.90;99.90
19974;DHT22;10148;47.694;9.442;2022-07-03T04:25:51;16.90;99.90
19974;DHT22;10148;47.694;9.442;2022-07-03T04:28:17;17.00;99.90
19974;DHT22;10148;47.694;9.442;2022-07-03T04:30:42;17.10;99.90
19974;DHT22;10148;47.694;9.442;2022-07-03T04:33:08;17.20;99.90
19974;DHT22;10148;47.694;9.442;2022-07-03T04:35:34;17.20;99.90
19974;DHT22;10148;47.694;9.442;2022-07-03T04:37:59;17.20;99.90
19974;DHT22;10148;47.694;9.442;2022-07-03T04:40:25;17.20;99.90
19974;DHT22;10148;47.694;9.442;2022-07-03T04:42:50;17.30;99.90
19974;DHT22;10148;47.694;9.442;2022-07-03T04:45:16;17.30;99.90
19974;DHT22;10148;47.694;9.442;2022-07-03T04:47:41;17.30;99.90
19974;DHT22;10148;47.694;9.442;2022-07-03T04:50:07;17.40;99.90
19974;DHT22;10148;47.694;9.442;2022-07-03T04:52:33;17.50;99.90
19974;DHT22;10148;47.694;9.442;2022-07-03T04:54:58;17.50;99.90
19974;DHT22;10148;47.694;9.442;2022-07-03T04:57:24;17.60;99.90
19974;DHT22;10148;47.694;9.442;2022-07-03T04:59:49;17.60;99.90
19974;DHT22;10148;47.694;9.442;2022-07-03T05:02:15;17.60;99.90
19974;DHT22;10148;47.694;9.442;2022-07-03T05:04:40;17.70;99.90
19974;DHT22;10148;47.694;9.442;2022-07-03T05:07:06;17.70;99.90
19974;DHT22;10148;47.694;9.442;2022-07-03T05:09:31;17.70;99.90
19974;DHT22;10148;47.694;9.442;2022-07-03T05:11:57;17.70;99.90
19974;DHT22;10148;47.694;9.442;2022-07-03T05:14:22;17.80;99.90
19974;DHT22;10148;47.694;9.442;2022-07-03T05:16:48;17.70;99.90
19974;DHT22;10148;47.694;9.442;2022-07-03T05:19:13;17.80;99.90
19974;DHT22;10148;47.694;9.442;2022-07-03T05:21:39;17.80;99.90
19974;DHT22;10148;47.694;9.442;2022-07-03T05:24:05;17.80;99.90
19974;DHT22;10148;47.694;9.442;2022-07-03T05:26:30;17.80;99.90
19974;DHT22;10148;47.694;9.442;2022-07-03T05:28:56;17.90;99.90
19974;DHT22;10148;47.694;9.442;2022-07-03T05:31:21;17.90;99.90
19974;DHT22;10148;47.694;9.442;2022-07-03T05:33:47;18.00;99.90
19974;DHT22;10148;47.694;9.442;2022-07-03T05:36:13;18.10;99.90
19974;DHT22;10148;47.694;9.442;2022-07-03T05:38:38;18.20;99.90
19974;DHT22;10148;47.694;9.442;2022-07-03T05:41:22;18.20;99.90
19974;DHT22;10148;47.694;9.442;2022-07-03T05:43:48;18.20;99.90
19974;DHT22;10148;47.694;9.442;2022-07-03T05:46:13;18.30;99.90
19974;DHT22;10148;47.694;9.442;2022-07-03T05:48:39;18.40;99.90
19974;DHT22;10148;47.694;9.442;2022-07-03T05:51:05;18.40;99.90
19974;DHT22;10148;47.694;9.442;2022-07-03T05:53:30;18.40;99.90
19974;DHT22;10148;47.694;9.442;2022-07-03T05:55:57;18.50;99.90
19974;DHT22;10148;47.694;9.442;2022-07-03T05:58:22;18.50;99.90
19974;DHT22;10148;47.694;9.442;2022-07-03T06:00:48;18.60;99.90
19974;DHT22;10148;47.694;9.442;2022-07-03T06:03:14;18.60;99.90
19974;DHT22;10148;47.694;9.442;2022-07-03T06:05:39;18.70;99.90
19974;DHT22;10148;47.694;9.442;2022-07-03T06:08:05;18.80;99.90
19974;DHT22;10148;47.694;9.442;2022-07-03T06:10:33;18.90;99.90
19974;DHT22;10148;47.694;9.442;2022-07-03T06:12:58;19.00;99.90
19974;DHT22;10148;47.694;9.442;2022-07-03T06:15:24;19.00;99.90
19974;DHT22;10148;47.694;9.442;2022-07-03T06:17:50;19.10;99.90
19974;DHT22;10148;47.694;9.442;2022-07-03T06:20:15;19.10;99.90
19974;DHT22;10148;47.694;9.442;2022-07-03T06:22:41;19.20;99.90
19974;DHT22;10148;47.694;9.442;2022-07-03T06:25:07;19.20;99.90
19974;DHT22;10148;47.694;9.442;2022-07-03T06:27:33;19.30;99.90
19974;DHT22;10148;47.694;9.442;2022-07-03T06:29:59;19.40;99.90
19974;DHT22;10148;47.694;9.442;2022-07-03T06:32:25;19.40;99.90
19974;DHT22;10148;47.694;9.442;2022-07-03T06:34:50;19.50;99.90
19974;DHT22;10148;47.694;9.442;2022-07-03T06:37:16;19.60;99.90
19974;DHT22;10148;47.694;9.442;2022-07-03T06:39:41;19.60;99.90
19974;DHT22;10148;47.694;9.442;2022-07-03T06:42:07;19.70;99.90
19974;DHT22;10148;47.694;9.442;2022-07-03T06:44:33;19.80;99.90
19974;DHT22;10148;47.694;9.442;2022-07-03T06:46:58;19.80;99.90
19974;DHT22;10148;47.694;9.442;2022-07-03T06:49:29;19.80;99.90
19974;DHT22;10148;47.694;9.442;2022-07-03T06:51:54;19.90;99.90
19974;DHT22;10148;47.694;9.442;2022-07-03T06:54:20;19.90;99.90
19974;DHT22;10148;47.694;9.442;2022-07-03T06:56:45;20.00;99.90
19974;DHT22;10148;47.694;9.442;2022-07-03T06:59:11;20.10;99.90
19974;DHT22;10148;47.694;9.442;2022-07-03T07:01:36;20.10;99.90
19974;DHT22;10148;47.694;9.442;2022-07-03T07:04:02;20.20;99.90
19974;DHT22;10148;47.694;9.442;2022-07-03T07:06:28;20.30;99.90
19974;DHT22;10148;47.694;9.442;2022-07-03T07:08:54;20.30;99.90
19974;DHT22;10148;47.694;9.442;2022-07-03T07:11:19;20.40;99.90
19974;DHT22;10148;47.694;9.442;2022-07-03T07:13:45;20.60;99.90
19974;DHT22;10148;47.694;9.442;2022-07-03T07:16:10;20.70;99.90
19974;DHT22;10148;47.694;9.442;2022-07-03T07:18:36;20.70;99.90
19974;DHT22;10148;47.694;9.442;2022-07-03T07:21:02;20.70;99.90
19974;DHT22;10148;47.694;9.442;2022-07-03T07:23:27;20.70;99.90
19974;DHT22;10148;47.694;9.442;2022-07-03T07:25:53;20.90;99.90
19974;DHT22;10148;47.694;9.442;2022-07-03T07:28:18;20.90;99.90
19974;DHT22;10148;47.694;9.442;2022-07-03T07:30:44;21.00;99.90
19974;DHT22;10148;47.694;9.442;2022-07-03T07:33:10;21.00;99.90
19974;DHT22;10148;47.694;9.442;2022-07-03T07:35:35;21.10;99.90
19974;DHT22;10148;47.694;9.442;2022-07-03T07:38:01;21.10;99.90
19974;DHT22;10148;47.694;9.442;2022-07-03T07:40:27;21.20;99.90
19974;DHT22;10148;47.694;9.442;2022-07-03T07:42:52;21.30;99.90
19974;DHT22;10148;47.694;9.442;2022-07-03T07:45:18;21.30;99.90
19974;DHT22;10148;47.694;9.442;2022-07-03T07:47:43;21.30;99.90
19974;DHT22;10148;47.694;9.442;2022-07-03T07:50:09;21.40;99.90
19974;DHT22;10148;47.694;9.442;2022-07-03T07:52:35;21.40;99.90
19974;DHT22;10148;47.694;9.442;2022-07-03T07:55:01;21.40;99.90
19974;DHT22;10148;47.694;9.442;2022-07-03T07:57:34;21.40;99.90
19974;DHT22;10148;47.694;9.442;2022-07-03T08:00:10;21.60;99.90
19974;DHT22;10148;47.694;9.442;2022-07-03T08:02:36;21.70;99.90
19974;DHT22;10148;47.694;9.442;2022-07-03T08:05:21;21.80;99.90
19974;DHT22;10148;47.694;9.442;2022-07-03T08:10:43;21.90;99.90
19974;DHT22;10148;47.694;9.442;2022-07-03T08:13:10;22.00;99.90
19974;DHT22;10148;47.694;9.442;2022-07-03T08:15:36;22.00;99.90
19974;DHT22;10148;47.694;9.442;2022-07-03T08:18:02;22.00;99.90
19974;DHT22;10148;47.694;9.442;2022-07-03T08:20:28;22.00;99.90
19974;DHT22;10148;47.694;9.442;2022-07-03T08:22:54;22.10;99.90
19974;DHT22;10148;47.694;9.442;2022-07-03T08:25:20;22.10;99.90
19974;DHT22;10148;47.694;9.442;2022-07-03T08:27:46;22.10;99.90
19974;DHT22;10148;47.694;9.442;2022-07-03T08:30:12;22.20;99.90
19974;DHT22;10148;47.694;9.442;2022-07-03T08:32:41;22.20;99.90
19974;DHT22;10148;47.694;9.442;2022-07-03T08:35:07;22.20;99.90
19974;DHT22;10148;47.694;9.442;2022-07-03T08:37:32;22.40;99.90
19974;DHT22;10148;47.694;9.442;2022-07-03T08:39:58;22.40;99.90
19974;DHT22;10148;47.694;9.442;2022-07-03T08:42:24;22.50;99.90
19974;DHT22;10148;47.694;9.442;2022-07-03T08:44:50;22.50;99.90
19974;DHT22;10148;47.694;9.442;2022-07-03T08:47:17;22.60;99.90
19974;DHT22;10148;47.694;9.442;2022-07-03T08:49:44;22.70;99.90
19974;DHT22;10148;47.694;9.442;2022-07-03T08:52:10;22.80;99.90
19974;DHT22;10148;47.694;9.442;2022-07-03T08:54:37;22.80;99.90
19974;DHT22;10148;47.694;9.442;2022-07-03T08:57:03;22.90;99.90
19974;DHT22;10148;47.694;9.442;2022-07-03T08:59:51;23.00;99.90
19974;DHT22;10148;47.694;9.442;2022-07-03T09:02:17;23.10;99.90
19974;DHT22;10148;47.694;9.442;2022-07-03T09:04:44;23.20;99.90
19974;DHT22;10148;47.694;9.442;2022-07-03T09:07:11;23.20;99.90
19974;DHT22;10148;47.694;9.442;2022-07-03T09:09:39;23.30;99.90
19974;DHT22;10148;47.694;9.442;2022-07-03T09:12:05;23.40;99.90
19974;DHT22;10148;47.694;9.442;2022-07-03T09:14:31;23.40;99.90
19974;DHT22;10148;47.694;9.442;2022-07-03T09:16:56;23.50;99.90
19974;DHT22;10148;47.694;9.442;2022-07-03T09:19:45;23.60;99.90
19974;DHT22;10148;47.694;9.442;2022-07-03T09:22:33;23.70;99.90
19974;DHT22;10148;47.694;9.442;2022-07-03T09:25:08;23.80;99.90
19974;DHT22;10148;47.694;9.442;2022-07-03T09:27:36;23.90;99.90
19974;DHT22;10148;47.694;9.442;2022-07-03T09:30:08;23.90;99.90
19974;DHT22;10148;47.694;9.442;2022-07-03T09:35:17;24.00;99.90
19974;DHT22;10148;47.694;9.442;2022-07-03T09:38:02;24.00;99.90
19974;DHT22;10148;47.694;9.442;2022-07-03T09:40:50;24.00;99.90
19974;DHT22;10148;47.694;9.442;2022-07-03T09:43:31;24.10;99.90
19974;DHT22;10148;47.694;9.442;2022-07-03T09:46:01;24.30;99.90
19974;DHT22;10148;47.694;9.442;2022-07-03T09:48:45;24.40;99.90
19974;DHT22;10148;47.694;9.442;2022-07-03T09:51:23;24.40;99.90
19974;DHT22;10148;47.694;9.442;2022-07-03T09:53:57;24.50;99.90
19974;DHT22;10148;47.694;9.442;2022-07-03T09:59:13;24.60;99.90
19974;DHT22;10148;47.694;9.442;2022-07-03T10:01:43;24.70;99.90
19974;DHT22;10148;47.694;9.442;2022-07-03T10:19:58;25.20;99.90
19974;DHT22;10148;47.694;9.442;2022-07-03T10:22:24;25.70;99.90
19974;DHT22;10148;47.694;9.442;2022-07-03T10:24:51;25.80;99.90
19974;DHT22;10148;47.694;9.442;2022-07-03T10:27:18;25.80;99.90
19974;DHT22;10148;47.694;9.442;2022-07-03T10:29:44;25.90;99.90
19974;DHT22;10148;47.694;9.442;2022-07-03T10:32:11;26.00;99.90
19974;DHT22;10148;47.694;9.442;2022-07-03T10:34:37;26.00;99.90
19974;DHT22;10148;47.694;9.442;2022-07-03T10:37:04;26.20;99.90
19974;DHT22;10148;47.694;9.442;2022-07-03T10:39:57;26.30;99.90
19974;DHT22;10148;47.694;9.442;2022-07-03T10:42:48;26.30;99.90
19974;DHT22;10148;47.694;9.442;2022-07-03T10:45:34;26.20;99.90
19974;DHT22;10148;47.694;9.442;2022-07-03T10:47:59;26.20;99.90
19974;DHT22;10148;47.694;9.442;2022-07-03T10:50:25;26.40;99.90
19974;DHT22;10148;47.694;9.442;2022-07-03T10:52:51;26.60;99.90
19974;DHT22;10148;47.694;9.442;2022-07-03T10:55:17;26.60;99.90
19974;DHT22;10148;47.694;9.442;2022-07-03T11:00:28;26.50;99.90
19974;DHT22;10148;47.694;9.442;2022-07-03T11:02:53;26.50;99.90
19974;DHT22;10148;47.694;9.442;2022-07-03T11:05:21;26.50;99.90
19974;DHT22;10148;47.694;9.442;2022-07-03T11:33:45;27.70;99.90
19974;DHT22;10148;47.694;9.442;2022-07-03T11:36:23;27.80;99.90
19974;DHT22;10148;47.694;9.442;2022-07-03T11:41:21;28.00;99.90
19974;DHT22;10148;47.694;9.442;2022-07-03T11:43:54;28.00;99.90
19974;DHT22;10148;47.694;9.442;2022-07-03T11:46:27;28.30;99.90
19974;DHT22;10148;47.694;9.442;2022-07-03T11:51:30;28.10;99.90
19974;DHT22;10148;47.694;9.442;2022-07-03T11:53:56;28.10;99.90
19974;DHT22;10148;47.694;9.442;2022-07-03T11:56:21;28.20;99.90
19974;DHT22;10148;47.694;9.442;2022-07-03T11:58:55;28.30;99.90
19974;DHT22;10148;47.694;9.442;2022-07-03T12:01:28;28.50;99.90
19974;DHT22;10148;47.694;9.442;2022-07-03T12:09:00;28.70;99.90
19974;DHT22;10148;47.694;9.442;2022-07-03T12:11:26;29.00;99.90
19974;DHT22;10148;47.694;9.442;2022-07-03T12:13:52;29.00;99.90
19974;DHT22;10148;47.694;9.442;2022-07-03T12:16:18;29.00;99.90
19974;DHT22;10148;47.694;9.442;2022-07-03T12:18:52;29.00;99.90
19974;DHT22;10148;47.694;9.442;2022-07-03T12:21:22;29.30;99.90
19974;DHT22;10148;47.694;9.442;2022-07-03T12:23:53;29.40;99.90
19974;DHT22;10148;47.694;9.442;2022-07-03T12:26:30;29.50;99.90
19974;DHT22;10148;47.694;9.442;2022-07-03T12:28:59;29.60;99.90
19974;DHT22;10148;47.694;9.442;2022-07-03T12:31:26;29.80;99.90
19974;DHT22;10148;47.694;9.442;2022-07-03T12:33:52;30.00;99.90
19974;DHT22;10148;47.694;9.442;2022-07-03T12:36:18;30.10;99.90
19974;DHT22;10148;47.694;9.442;2022-07-03T12:38:57;29.90;99.90
19974;DHT22;10148;47.694;9.442;2022-07-03T12:41:24;30.10;99.90
19974;DHT22;10148;47.694;9.442;2022-07-03T12:43:51;30.30;99.90
19974;DHT22;10148;47.694;9.442;2022-07-03T12:48:59;30.70;99.90
19974;DHT22;10148;47.694;9.442;2022-07-03T12:51:44;30.70;99.90
19974;DHT22;10148;47.694;9.442;2022-07-03T12:56:39;30.70;99.90
19974;DHT22;10148;47.694;9.442;2022-07-03T12:59:05;30.80;99.90
19974;DHT22;10148;47.694;9.442;2022-07-03T13:01:58;30.90;99.90
19974;DHT22;10148;47.694;9.442;2022-07-03T13:04:51;30.90;99.90
19974;DHT22;10148;47.694;9.442;2022-07-03T13:07:17;31.00;99.90
19974;DHT22;10148;47.694;9.442;2022-07-03T13:09:42;30.80;99.90
19974;DHT22;10148;47.694;9.442;2022-07-03T13:12:20;30.60;99.90
19974;DHT22;10148;47.694;9.442;2022-07-03T13:15:00;30.60;99.90
19974;DHT22;10148;47.694;9.442;2022-07-03T13:18:18;30.70;99.90
19974;DHT22;10148;47.694;9.442;2022-07-03T13:20:36;30.70;99.90
19974;DHT22;10148;47.694;9.442;2022-07-03T13:23:04;30.40;99.90
19974;DHT22;10148;47.694;9.442;2022-07-03T13:25:31;30.50;99.90
19974;DHT22;10148;47.694;9.442;2022-07-03T13:28:04;30.70;99.90
19974;DHT22;10148;47.694;9.442;2022-07-03T13:30:31;31.10;99.90
19974;DHT22;10148;47.694;9.442;2022-07-03T13:32:56;31.30;99.90
19974;DHT22;10148;47.694;9.442;2022-07-03T13:35:22;31.50;99.90
19974;DHT22;10148;47.694;9.442;2022-07-03T13:37:47;31.50;99.90
19974;DHT22;10148;47.694;9.442;2022-07-03T13:40:13;31.50;99.90
19974;DHT22;10148;47.694;9.442;2022-07-03T13:42:38;31.50;99.90
19974;DHT22;10148;47.694;9.442;2022-07-03T13:45:04;31.20;99.90
19974;DHT22;10148;47.694;9.442;2022-07-03T13:47:30;31.10;99.90
19974;DHT22;10148;47.694;9.442;2022-07-03T13:49:56;31.10;99.90
19974;DHT22;10148;47.694;9.442;2022-07-03T13:52:21;31.30;99.90
19974;DHT22;10148;47.694;9.442;2022-07-03T13:54:47;31.40;99.90
19974;DHT22;10148;47.694;9.442;2022-07-03T13:57:13;31.30;99.90
19974;DHT22;10148;47.694;9.442;2022-07-03T13:59:39;31.30;99.90
19974;DHT22;10148;47.694;9.442;2022-07-03T14:02:06;31.30;99.90
19974;DHT22;10148;47.694;9.442;2022-07-03T14:04:31;31.30;99.90
19974;DHT22;10148;47.694;9.442;2022-07-03T14:06:57;31.10;99.90
19974;DHT22;10148;47.694;9.442;2022-07-03T14:09:23;30.90;99.90
19974;DHT22;10148;47.694;9.442;2022-07-03T14:11:48;31.20;99.90
19974;DHT22;10148;47.694;9.442;2022-07-03T14:14:15;31.30;99.90
19974;DHT22;10148;47.694;9.442;2022-07-03T14:16:41;31.30;99.90
19974;DHT22;10148;47.694;9.442;2022-07-03T14:19:06;31.40;99.90
19974;DHT22;10148;47.694;9.442;2022-07-03T14:21:33;31.40;99.90
19974;DHT22;10148;47.694;9.442;2022-07-03T14:23:58;31.70;99.90
19974;DHT22;10148;47.694;9.442;2022-07-03T14:26:24;32.10;99.90
19974;DHT22;10148;47.694;9.442;2022-07-03T14:29:08;31.70;99.90
19974;DHT22;10148;47.694;9.442;2022-07-03T14:31:56;31.60;99.90
19974;DHT22;10148;47.694;9.442;2022-07-03T14:34:41;32.20;99.90
19974;DHT22;10148;47.694;9.442;2022-07-03T14:37:07;32.20;99.90
19974;DHT22;10148;47.694;9.442;2022-07-03T14:39:34;32.00;99.90
19974;DHT22;10148;47.694;9.442;2022-07-03T14:41:59;31.80;99.90
19974;DHT22;10148;47.694;9.442;2022-07-03T14:44:25;32.00;99.90
19974;DHT22;10148;47.694;9.442;2022-07-03T14:46:52;32.20;99.90
19974;DHT22;10148;47.694;9.442;2022-07-03T14:49:18;32.60;99.90
19974;DHT22;10148;47.694;9.442;2022-07-03T14:51:43;32.50;99.90
19974;DHT22;10148;47.694;9.442;2022-07-03T14:54:10;32.80;99.90
19974;DHT22;10148;47.694;9.442;2022-07-03T14:56:39;32.70;99.90
19974;DHT22;10148;47.694;9.442;2022-07-03T14:59:08;32.90;99.90
19974;DHT22;10148;47.694;9.442;2022-07-03T15:01:40;33.00;99.90
19974;DHT22;10148;47.694;9.442;2022-07-03T15:06:50;33.20;99.90
19974;DHT22;10148;47.694;9.442;2022-07-03T15:09:28;33.30;99.90
19974;DHT22;10148;47.694;9.442;2022-07-03T15:11:55;33.10;99.90
19974;DHT22;10148;47.694;9.442;2022-07-03T15:14:42;33.20;99.90
19974;DHT22;10148;47.694;9.442;2022-07-03T15:17:08;33.20;99.90
19974;DHT22;10148;47.694;9.442;2022-07-03T15:19:35;33.30;99.90
19974;DHT22;10148;47.694;9.442;2022-07-03T15:22:05;33.60;99.90
19974;DHT22;10148;47.694;9.442;2022-07-03T15:24:35;33.60;99.90
19974;DHT22;10148;47.694;9.442;2022-07-03T15:27:01;33.70;99.90
19974;DHT22;10148;47.694;9.442;2022-07-03T15:29:26;33.60;99.90
19974;DHT22;10148;47.694;9.442;2022-07-03T15:31:52;33.50;99.90
19974;DHT22;10148;47.694;9.442;2022-07-03T15:34:19;33.40;99.90
19974;DHT22;10148;47.694;9.442;2022-07-03T15:36:51;33.70;99.90
19974;DHT22;10148;47.694;9.442;2022-07-03T15:39:28;33.70;99.90
19974;DHT22;10148;47.694;9.442;2022-07-03T15:43:00;33.80;99.90
19974;DHT22;10148;47.694;9.442;2022-07-03T15:45:10;34.10;99.90
19974;DHT22;10148;47.694;9.442;2022-07-03T15:48:07;33.90;99.90
19974;DHT22;10148;47.694;9.442;2022-07-03T15:53:00;33.60;99.90
19974;DHT22;10148;47.694;9.442;2022-07-03T15:55:32;33.60;99.90
19974;DHT22;10148;47.694;9.442;2022-07-03T15:58:04;33.60;99.90
19974;DHT22;10148;47.694;9.442;2022-07-03T16:00:36;33.60;99.90
19974;DHT22;10148;47.694;9.442;2022-07-03T16:03:23;33.80;99.90
19974;DHT22;10148;47.694;9.442;2022-07-03T16:05:54;34.10;99.90
19974;DHT22;10148;47.694;9.442;2022-07-03T16:08:21;34.10;99.90
19974;DHT22;10148;47.694;9.442;2022-07-03T16:10:50;34.00;99.90
19974;DHT22;10148;47.694;9.442;2022-07-03T16:13:19;34.10;99.90
19974;DHT22;10148;47.694;9.442;2022-07-03T16:15:50;34.20;99.90
19974;DHT22;10148;47.694;9.442;2022-07-03T16:18:16;34.30;99.90
19974;DHT22;10148;47.694;9.442;2022-07-03T16:20:42;34.30;99.90
19974;DHT22;10148;47.694;9.442;2022-07-03T16:23:10;34.40;99.90
19974;DHT22;10148;47.694;9.442;2022-07-03T16:25:36;34.40;99.90
19974;DHT22;10148;47.694;9.442;2022-07-03T16:28:09;34.20;99.90
19974;DHT22;10148;47.694;9.442;2022-07-03T16:30:41;33.90;99.90
19974;DHT22;10148;47.694;9.442;2022-07-03T16:33:10;33.50;99.90
19974;DHT22;10148;47.694;9.442;2022-07-03T16:35:47;33.40;99.90
19974;DHT22;10148;47.694;9.442;2022-07-03T16:38:22;33.60;99.90
19974;DHT22;10148;47.694;9.442;2022-07-03T16:40:50;33.60;99.90
19974;DHT22;10148;47.694;9.442;2022-07-03T16:43:19;33.60;99.90
19974;DHT22;10148;47.694;9.442;2022-07-03T16:45:45;33.50;99.90
19974;DHT22;10148;47.694;9.442;2022-07-03T16:48:15;33.40;99.90
19974;DHT22;10148;47.694;9.442;2022-07-03T16:50:56;32.90;99.90
19974;DHT22;10148;47.694;9.442;2022-07-03T16:53:30;32.60;99.90
19974;DHT22;10148;47.694;9.442;2022-07-03T16:55:56;32.50;99.90
19974;DHT22;10148;47.694;9.442;2022-07-03T16:58:23;32.30;99.90
19974;DHT22;10148;47.694;9.442;2022-07-03T17:00:50;32.00;99.90
19974;DHT22;10148;47.694;9.442;2022-07-03T17:03:18;31.70;99.90
19974;DHT22;10148;47.694;9.442;2022-07-03T17:05:45;31.60;99.90
19974;DHT22;10148;47.694;9.442;2022-07-03T17:08:15;31.50;99.90
19974;DHT22;10148;47.694;9.442;2022-07-03T17:10:41;31.60;99.90
19974;DHT22;10148;47.694;9.442;2022-07-03T17:13:08;31.70;99.90
19974;DHT22;10148;47.694;9.442;2022-07-03T17:15:35;32.00;99.90
19974;DHT22;10148;47.694;9.442;2022-07-03T17:18:05;32.10;99.90
19974;DHT22;10148;47.694;9.442;2022-07-03T17:20:34;32.30;99.90